createdAt,value
2022-11-16T00:04:11.882Z,94832.47
2022-11-16T00:14:15.882Z,94825.00
2022-11-16T00:24:19.787Z,94812.41
2022-11-16T00:34:24.085Z,94786.50
2022-11-16T00:44:26.614Z,94771.47
2022-11-16T00:54:30.450Z,94786.13
2022-11-16T01:04:32.943Z,94779.94
2022-11-16T01:14:37.146Z,94786.75
2022-11-16T01:24:39.644Z,94772.56
2022-11-16T01:34:43.593Z,94765.63
2022-11-16T01:44:56.104Z,94755.66
2022-11-16T01:55:00.330Z,94762.06
2022-11-16T02:05:03.549Z,94748.69
2022-11-16T02:15:13.574Z,94754.28
2022-11-16T02:25:20.077Z,94751.88
2022-11-16T02:35:27.315Z,94744.06
2022-11-16T02:45:32.507Z,94725.63
2022-11-16T02:55:37.181Z,94736.72
2022-11-16T03:05:41.379Z,94728.72
2022-11-16T03:15:45.321Z,94731.53
2022-11-16T03:25:50.327Z,94706.81
2022-11-16T03:35:57.705Z,94692.41
2022-11-16T03:46:00.202Z,94713.53
2022-11-16T03:56:04.102Z,94717.81
2022-11-16T04:06:24.324Z,94735.78
2022-11-16T04:16:45.441Z,94726.56
2022-11-16T04:27:06.993Z,94743.00
2022-11-16T04:37:30.255Z,94751.06
2022-11-16T04:47:32.901Z,94750.22
2022-11-16T04:57:36.743Z,94748.06
2022-11-16T05:07:39.209Z,94758.88
2022-11-16T05:17:43.022Z,94772.88
2022-11-16T05:27:45.489Z,94775.63
2022-11-16T05:37:49.401Z,94761.19
2022-11-16T05:47:51.847Z,94767.78
2022-11-16T05:57:55.772Z,94762.88
2022-11-16T06:07:58.255Z,94770.09
2022-11-16T06:18:02.094Z,94779.06
2022-11-16T06:28:07.882Z,94774.25
2022-11-16T06:38:13.788Z,94787.91
2022-11-16T06:48:16.314Z,94801.84
2022-11-16T06:58:20.318Z,94804.50
2022-11-16T07:08:22.941Z,94819.47
2022-11-16T07:18:27.379Z,94826.91
2022-11-16T07:28:30.765Z,94848.91
2022-11-16T07:38:35.210Z,94860.03
2022-11-16T07:48:37.915Z,94875.66
2022-11-16T07:58:41.717Z,94865.63
2022-11-16T08:08:44.445Z,94860.00
2022-11-16T08:18:48.295Z,94867.97
2022-11-16T08:28:53.674Z,94865.28
2022-11-16T08:38:58.090Z,94867.19
2022-11-16T08:49:00.548Z,94880.03
2022-11-16T08:59:04.403Z,94878.78
2022-11-16T09:09:06.925Z,94892.41
2022-11-16T09:19:10.732Z,94888.78
2022-11-16T09:29:13.970Z,94899.50
2022-11-16T09:39:33.520Z,94907.31
2022-11-16T09:49:39.077Z,94895.31
2022-11-16T09:59:46.299Z,94901.47
2022-11-16T10:09:48.906Z,94887.13
2022-11-16T10:19:55.367Z,94886.09
2022-11-16T10:30:03.220Z,94871.66
2022-11-16T10:40:16.651Z,94864.31
2022-11-16T10:50:27.247Z,94851.69
2022-11-16T11:00:38.910Z,94854.97
2022-11-16T11:10:42.325Z,94831.59
2022-11-16T11:20:47.792Z,94836.53
2022-11-16T11:30:54.982Z,94834.41
2022-11-16T11:40:59.910Z,94827.19
2022-11-16T11:51:04.058Z,94830.06
2022-11-16T12:01:25.254Z,94828.44
2022-11-16T12:11:34.059Z,94820.25
2022-11-16T12:21:44.470Z,94808.66
2022-11-16T12:31:57.228Z,94800.72
2022-11-16T12:42:18.526Z,94794.84
2022-11-16T12:52:28.661Z,94794.34
2022-11-16T13:02:37.083Z,94786.69
2022-11-16T13:12:41.468Z,94779.28
2022-11-16T13:22:50.802Z,94779.03
2022-11-16T13:33:04.252Z,94766.03
2022-11-16T13:43:15.178Z,94762.56
2022-11-16T13:54:25.192Z,94755.47
2022-11-16T14:03:51.321Z,94751.84
2022-11-16T14:13:55.250Z,94765.34
2022-11-16T14:24:08.145Z,94731.78
2022-11-16T14:34:18.320Z,94726.19
2022-11-16T14:44:22.592Z,94704.66
2022-11-16T14:54:31.167Z,94703.44
2022-11-16T15:04:33.845Z,94705.84
2022-11-16T15:14:39.283Z,94707.81
2022-11-16T15:24:41.780Z,94717.34
2022-11-16T15:34:47.604Z,94689.34
2022-11-16T15:44:50.496Z,94669.09
2022-11-16T15:55:05.213Z,94700.00
2022-11-16T16:05:08.096Z,94678.88
2022-11-16T16:15:25.952Z,94661.78
2022-11-16T16:25:29.567Z,94660.28
2022-11-16T16:35:33.508Z,94658.47
2022-11-16T16:45:38.039Z,94671.47
2022-11-16T16:55:42.027Z,94653.53
2022-11-16T17:05:44.602Z,94645.00
2022-11-16T17:15:48.409Z,94644.50
2022-11-16T17:25:50.902Z,94642.78
2022-11-16T17:35:57.813Z,94627.00
2022-11-16T17:46:04.176Z,94614.53
2022-11-16T17:56:08.475Z,94596.44
2022-11-16T18:06:13.215Z,94609.47
2022-11-16T18:16:18.401Z,94591.44
2022-11-16T18:26:22.455Z,94571.44
2022-11-16T18:36:26.508Z,94539.22
2022-11-16T18:46:29.675Z,94518.66
2022-11-16T18:56:36.213Z,94509.41
2022-11-16T19:06:38.683Z,94510.50
2022-11-16T19:16:52.476Z,94514.56
2022-11-16T19:26:55.354Z,94509.75
2022-11-16T19:36:59.235Z,94514.25
2022-11-16T19:47:01.719Z,94522.25
2022-11-16T19:57:05.591Z,94539.66
2022-11-16T20:07:09.640Z,94542.19
2022-11-16T20:17:13.543Z,94493.69
2022-11-16T20:27:16.329Z,94484.06
2022-11-16T20:37:20.617Z,94488.91
2022-11-16T20:47:23.128Z,94488.38
2022-11-16T20:57:26.941Z,94477.16
2022-11-16T21:07:30.724Z,94447.84
2022-11-16T21:17:34.626Z,94442.50
2022-11-16T21:27:37.163Z,94456.13
2022-11-16T21:37:41.214Z,94440.13
2022-11-16T21:47:43.710Z,94430.75
2022-11-16T21:57:47.568Z,94443.88
2022-11-16T22:07:50.069Z,94430.00
2022-11-16T22:17:53.895Z,94425.94
2022-11-16T22:28:19.602Z,94416.09
2022-11-16T22:38:20.359Z,94413.38
2022-11-16T22:48:22.894Z,94389.63
2022-11-16T22:58:26.742Z,94387.38
2022-11-16T23:08:29.308Z,94394.84
2022-11-16T23:18:33.316Z,94384.03
2022-11-16T23:28:36.005Z,94377.94
2022-11-16T23:38:39.801Z,94334.94
2022-11-16T23:48:42.274Z,94319.03
2022-11-16T23:58:46.159Z,94308.91
